sensor_id;sensor_type;location;lat;lon;timestamp;temperature;humidity
55369;DHT22;41247;49.736;8.752;2023-12-04T00:02:12;-3.30;99.90
55369;DHT22;41247;49.736;8.752;2023-12-04T00:05:53;-3.30;99.90
55369;DHT22;41247;49.736;8.752;2023-12-04T00:09:36;-3.30;99.90
55369;DHT22;41247;49.736;8.752;2023-12-04T00:13:17;-3.30;99.90
55369;DHT22;41247;49.736;8.752;2023-12-04T00:16:57;-3.30;99.90
55369;DHT22;41247;49.736;8.752;2023-12-04T00:20:38;-3.30;99.90
55369;DHT22;41247;49.736;8.752;2023-12-04T00:24:19;-3.40;99.90
55369;DHT22;41247;49.736;8.752;2023-12-04T00:27:59;-3.50;99.90
55369;DHT22;41247;49.736;8.752;2023-12-04T00:31:40;-3.50;99.90
55369;DHT22;41247;49.736;8.752;2023-12-04T00:35:21;-3.60;99.90
55369;DHT22;41247;49.736;8.752;2023-12-04T00:39:02;-3.70;99.90
55369;DHT22;41247;49.736;8.752;2023-12-04T00:42:43;-3.80;99.90
55369;DHT22;41247;49.736;8.752;2023-12-04T00:46:23;-3.80;99.90
55369;DHT22;41247;49.736;8.752;2023-12-04T00:50:04;-3.90;99.90
55369;DHT22;41247;49.736;8.752;2023-12-04T00:53:45;-4.00;99.90
55369;DHT22;41247;49.736;8.752;2023-12-04T00:57:26;-4.00;99.90
55369;DHT22;41247;49.736;8.752;2023-12-04T01:01:06;-4.00;99.90
55369;DHT22;41247;49.736;8.752;2023-12-04T01:04:47;-4.10;99.90
55369;DHT22;41247;49.736;8.752;2023-12-04T01:08:27;-4.10;99.90
55369;DHT22;41247;49.736;8.752;2023-12-04T01:16:41;-4.10;99.90
55369;DHT22;41247;49.736;8.752;2023-12-04T01:20:22;-4.20;99.90
55369;DHT22;41247;49.736;8.752;2023-12-04T01:24:03;-4.20;99.90
55369;DHT22;41247;49.736;8.752;2023-12-04T01:27:44;-4.30;99.90
55369;DHT22;41247;49.736;8.752;2023-12-04T01:31:24;-4.30;99.90
55369;DHT22;41247;49.736;8.752;2023-12-04T01:35:05;-4.30;99.90
55369;DHT22;41247;49.736;8.752;2023-12-04T01:38:46;-4.30;99.90
55369;DHT22;41247;49.736;8.752;2023-12-04T01:42:30;-4.40;99.90
55369;DHT22;41247;49.736;8.752;2023-12-04T01:46:11;-4.40;99.90
55369;DHT22;41247;49.736;8.752;2023-12-04T01:49:51;-4.50;99.90
55369;DHT22;41247;49.736;8.752;2023-12-04T01:53:37;-4.50;99.90
55369;DHT22;41247;49.736;8.752;2023-12-04T01:57:19;-4.50;99.90
55369;DHT22;41247;49.736;8.752;2023-12-04T02:01:00;-4.50;99.90
55369;DHT22;41247;49.736;8.752;2023-12-04T02:04:58;-4.50;99.90
55369;DHT22;41247;49.736;8.752;2023-12-04T02:08:42;-4.50;99.90
55369;DHT22;41247;49.736;8.752;2023-12-04T02:12:25;-4.50;99.90
55369;DHT22;41247;49.736;8.752;2023-12-04T02:16:10;-4.50;99.90
55369;DHT22;41247;49.736;8.752;2023-12-04T02:19:51;-4.50;99.90
55369;DHT22;41247;49.736;8.752;2023-12-04T02:23:31;-4.50;99.90
55369;DHT22;41247;49.736;8.752;2023-12-04T02:27:16;-4.50;99.90
55369;DHT22;41247;49.736;8.752;2023-12-04T02:30:58;-4.50;99.90
55369;DHT22;41247;49.736;8.752;2023-12-04T02:34:41;-4.50;99.90
55369;DHT22;41247;49.736;8.752;2023-12-04T02:38:23;-4.50;99.90
55369;DHT22;41247;49.736;8.752;2023-12-04T02:42:04;-4.40;99.90
55369;DHT22;41247;49.736;8.752;2023-12-04T02:45:44;-4.40;99.90
55369;DHT22;41247;49.736;8.752;2023-12-04T02:49:25;-4.40;99.90
55369;DHT22;41247;49.736;8.752;2023-12-04T02:53:05;-4.30;99.90
55369;DHT22;41247;49.736;8.752;2023-12-04T02:56:46;-4.30;99.90
55369;DHT22;41247;49.736;8.752;2023-12-04T03:00:27;-4.20;99.90
55369;DHT22;41247;49.736;8.752;2023-12-04T03:04:07;-4.20;99.90
55369;DHT22;41247;49.736;8.752;2023-12-04T03:07:50;-4.10;99.90
55369;DHT22;41247;49.736;8.752;2023-12-04T03:11:31;-4.10;99.90
55369;DHT22;41247;49.736;8.752;2023-12-04T03:15:12;-4.00;99.90
55369;DHT22;41247;49.736;8.752;2023-12-04T03:18:52;-4.00;99.90
55369;DHT22;41247;49.736;8.752;2023-12-04T03:22:33;-4.00;99.90
55369;DHT22;41247;49.736;8.752;2023-12-04T03:26:13;-3.90;99.90
55369;DHT22;41247;49.736;8.752;2023-12-04T03:29:54;-3.70;99.90
55369;DHT22;41247;49.736;8.752;2023-12-04T03:33:35;-3.50;99.90
55369;DHT22;41247;49.736;8.752;2023-12-04T03:37:15;-3.20;99.90
55369;DHT22;41247;49.736;8.752;2023-12-04T03:40:56;-2.80;99.90
55369;DHT22;41247;49.736;8.752;2023-12-04T03:44:36;-2.60;99.90
55369;DHT22;41247;49.736;8.752;2023-12-04T03:48:17;-2.50;99.90
55369;DHT22;41247;49.736;8.752;2023-12-04T03:51:58;-2.40;99.90
55369;DHT22;41247;49.736;8.752;2023-12-04T03:55:38;-2.40;99.90
55369;DHT22;41247;49.736;8.752;2023-12-04T03:59:19;-2.30;99.90
55369;DHT22;41247;49.736;8.752;2023-12-04T04:02:59;-2.20;99.90
55369;DHT22;41247;49.736;8.752;2023-12-04T04:06:40;-2.00;99.90
55369;DHT22;41247;49.736;8.752;2023-12-04T04:10:20;-2.00;99.90
55369;DHT22;41247;49.736;8.752;2023-12-04T04:14:01;-1.80;99.90
55369;DHT22;41247;49.736;8.752;2023-12-04T04:17:42;-1.70;99.90
55369;DHT22;41247;49.736;8.752;2023-12-04T04:21:27;-1.70;99.90
55369;DHT22;41247;49.736;8.752;2023-12-04T04:25:08;-1.70;99.90
55369;DHT22;41247;49.736;8.752;2023-12-04T04:28:49;-1.70;99.90
55369;DHT22;41247;49.736;8.752;2023-12-04T04:32:30;-1.70;99.90
55369;DHT22;41247;49.736;8.752;2023-12-04T04:36:10;-1.70;99.90
55369;DHT22;41247;49.736;8.752;2023-12-04T04:39:51;-1.80;99.90
55369;DHT22;41247;49.736;8.752;2023-12-04T04:43:31;-1.80;99.90
55369;DHT22;41247;49.736;8.752;2023-12-04T04:47:12;-1.90;99.90
55369;DHT22;41247;49.736;8.752;2023-12-04T04:50:52;-1.90;99.90
55369;DHT22;41247;49.736;8.752;2023-12-04T04:54:33;-1.80;99.90
55369;DHT22;41247;49.736;8.752;2023-12-04T04:58:14;-1.80;99.90
55369;DHT22;41247;49.736;8.752;2023-12-04T05:01:54;-1.80;99.90
55369;DHT22;41247;49.736;8.752;2023-12-04T05:05:35;-1.80;99.90
55369;DHT22;41247;49.736;8.752;2023-12-04T05:09:16;-1.80;99.90
55369;DHT22;41247;49.736;8.752;2023-12-04T05:12:56;-1.80;99.90
55369;DHT22;41247;49.736;8.752;2023-12-04T05:16:37;-1.70;99.90
55369;DHT22;41247;49.736;8.752;2023-12-04T05:20:17;-1.70;99.90
55369;DHT22;41247;49.736;8.752;2023-12-04T05:23:58;-1.70;99.90
55369;DHT22;41247;49.736;8.752;2023-12-04T05:27:39;-1.70;99.90
55369;DHT22;41247;49.736;8.752;2023-12-04T05:31:19;-1.70;99.90
55369;DHT22;41247;49.736;8.752;2023-12-04T05:35:00;-1.70;99.90
55369;DHT22;41247;49.736;8.752;2023-12-04T05:38:40;-1.70;99.90
55369;DHT22;41247;49.736;8.752;2023-12-04T05:42:21;-1.70;99.90
55369;DHT22;41247;49.736;8.752;2023-12-04T05:46:02;-1.70;99.90
55369;DHT22;41247;49.736;8.752;2023-12-04T05:49:42;-1.70;99.90
55369;DHT22;41247;49.736;8.752;2023-12-04T05:53:23;-1.70;99.90
55369;DHT22;41247;49.736;8.752;2023-12-04T05:57:03;-1.70;99.90
55369;DHT22;41247;49.736;8.752;2023-12-04T06:00:44;-1.60;99.90
55369;DHT22;41247;49.736;8.752;2023-12-04T06:04:25;-1.50;99.90
55369;DHT22;41247;49.736;8.752;2023-12-04T06:08:05;-1.60;99.90
55369;DHT22;41247;49.736;8.752;2023-12-04T06:11:46;-1.60;99.90
55369;DHT22;41247;49.736;8.752;2023-12-04T06:15:27;-1.60;99.90
55369;DHT22;41247;49.736;8.752;2023-12-04T06:19:37;-1.70;99.90
55369;DHT22;41247;49.736;8.752;2023-12-04T06:24:00;-1.80;99.90
55369;DHT22;41247;49.736;8.752;2023-12-04T06:27:47;-1.90;99.90
55369;DHT22;41247;49.736;8.752;2023-12-04T06:31:28;-1.90;99.90
55369;DHT22;41247;49.736;8.752;2023-12-04T06:35:09;-1.90;99.90
55369;DHT22;41247;49.736;8.752;2023-12-04T06:38:52;-1.80;99.90
55369;DHT22;41247;49.736;8.752;2023-12-04T06:42:35;-1.80;99.90
55369;DHT22;41247;49.736;8.752;2023-12-04T06:46:21;-1.70;99.90
55369;DHT22;41247;49.736;8.752;2023-12-04T06:50:13;-1.60;99.90
55369;DHT22;41247;49.736;8.752;2023-12-04T06:54:02;-1.60;99.90
55369;DHT22;41247;49.736;8.752;2023-12-04T06:57:46;-1.60;99.90
55369;DHT22;41247;49.736;8.752;2023-12-04T07:01:26;-1.50;99.90
55369;DHT22;41247;49.736;8.752;2023-12-04T07:05:10;-1.50;99.90
55369;DHT22;41247;49.736;8.752;2023-12-04T07:09:21;-1.40;99.90
55369;DHT22;41247;49.736;8.752;2023-12-04T07:13:06;-1.40;99.90
55369;DHT22;41247;49.736;8.752;2023-12-04T07:16:46;-1.40;99.90
55369;DHT22;41247;49.736;8.752;2023-12-04T07:20:27;-1.30;99.90
55369;DHT22;41247;49.736;8.752;2023-12-04T07:24:08;-1.00;99.90
55369;DHT22;41247;49.736;8.752;2023-12-04T07:28:14;-0.80;99.90
55369;DHT22;41247;49.736;8.752;2023-12-04T07:31:54;-0.80;99.90
55369;DHT22;41247;49.736;8.752;2023-12-04T07:35:35;-0.90;99.90
55369;DHT22;41247;49.736;8.752;2023-12-04T07:39:17;-1.00;99.90
55369;DHT22;41247;49.736;8.752;2023-12-04T07:42:57;-1.00;99.90
55369;DHT22;41247;49.736;8.752;2023-12-04T07:46:38;-1.10;99.90
55369;DHT22;41247;49.736;8.752;2023-12-04T07:50:18;-1.00;99.90
55369;DHT22;41247;49.736;8.752;2023-12-04T07:53:59;-1.00;99.90
55369;DHT22;41247;49.736;8.752;2023-12-04T07:57:39;-1.00;99.90
55369;DHT22;41247;49.736;8.752;2023-12-04T08:01:20;-1.00;99.90
55369;DHT22;41247;49.736;8.752;2023-12-04T08:05:01;-0.90;99.90
55369;DHT22;41247;49.736;8.752;2023-12-04T08:08:41;-0.90;99.90
55369;DHT22;41247;49.736;8.752;2023-12-04T08:12:22;-0.90;99.90
55369;DHT22;41247;49.736;8.752;2023-12-04T08:16:03;-0.80;99.90
55369;DHT22;41247;49.736;8.752;2023-12-04T08:19:44;-0.80;99.90
55369;DHT22;41247;49.736;8.752;2023-12-04T08:23:24;-0.70;99.90
55369;DHT22;41247;49.736;8.752;2023-12-04T08:27:05;-0.60;99.90
55369;DHT22;41247;49.736;8.752;2023-12-04T08:30:46;-0.60;99.90
55369;DHT22;41247;49.736;8.752;2023-12-04T08:34:26;-0.50;99.90
55369;DHT22;41247;49.736;8.752;2023-12-04T08:38:07;-0.50;99.90
55369;DHT22;41247;49.736;8.752;2023-12-04T08:41:48;-0.50;99.90
55369;DHT22;41247;49.736;8.752;2023-12-04T08:45:28;-0.50;99.90
55369;DHT22;41247;49.736;8.752;2023-12-04T08:49:09;-0.40;99.90
55369;DHT22;41247;49.736;8.752;2023-12-04T08:52:49;-0.40;99.90
55369;DHT22;41247;49.736;8.752;2023-12-04T08:56:30;-0.30;99.90
55369;DHT22;41247;49.736;8.752;2023-12-04T09:00:11;-0.30;99.90
55369;DHT22;41247;49.736;8.752;2023-12-04T09:03:52;-0.20;99.90
55369;DHT22;41247;49.736;8.752;2023-12-04T09:07:32;-0.10;99.90
55369;DHT22;41247;49.736;8.752;2023-12-04T09:11:15;0.00;99.90
55369;DHT22;41247;49.736;8.752;2023-12-04T09:14:56;0.00;99.90
55369;DHT22;41247;49.736;8.752;2023-12-04T09:18:36;0.20;99.90
55369;DHT22;41247;49.736;8.752;2023-12-04T09:22:17;0.20;99.90
55369;DHT22;41247;49.736;8.752;2023-12-04T09:25:59;0.30;99.90
55369;DHT22;41247;49.736;8.752;2023-12-04T09:29:41;0.40;99.90
55369;DHT22;41247;49.736;8.752;2023-12-04T09:33:22;0.40;99.90
55369;DHT22;41247;49.736;8.752;2023-12-04T09:37:02;0.30;99.90
55369;DHT22;41247;49.736;8.752;2023-12-04T09:40:43;0.30;99.90
55369;DHT22;41247;49.736;8.752;2023-12-04T09:44:24;0.20;99.90
55369;DHT22;41247;49.736;8.752;2023-12-04T09:48:06;0.20;99.90
55369;DHT22;41247;49.736;8.752;2023-12-04T09:51:47;0.30;99.90
55369;DHT22;41247;49.736;8.752;2023-12-04T09:55:28;0.30;99.90
55369;DHT22;41247;49.736;8.752;2023-12-04T09:59:09;0.30;99.90
55369;DHT22;41247;49.736;8.752;2023-12-04T10:02:53;0.40;99.90
55369;DHT22;41247;49.736;8.752;2023-12-04T10:06:36;0.40;99.90
55369;DHT22;41247;49.736;8.752;2023-12-04T10:10:17;0.40;99.90
55369;DHT22;41247;49.736;8.752;2023-12-04T10:13:58;0.40;99.90
55369;DHT22;41247;49.736;8.752;2023-12-04T10:17:41;0.40;99.90
55369;DHT22;41247;49.736;8.752;2023-12-04T10:21:22;0.30;99.90
55369;DHT22;41247;49.736;8.752;2023-12-04T10:25:18;0.30;99.90
55369;DHT22;41247;49.736;8.752;2023-12-04T10:29:03;0.40;99.90
55369;DHT22;41247;49.736;8.752;2023-12-04T10:32:43;0.40;99.90
55369;DHT22;41247;49.736;8.752;2023-12-04T10:36:24;0.50;99.90
55369;DHT22;41247;49.736;8.752;2023-12-04T10:40:05;0.60;99.90
55369;DHT22;41247;49.736;8.752;2023-12-04T10:43:47;0.70;99.90
55369;DHT22;41247;49.736;8.752;2023-12-04T10:47:30;0.90;99.90
55369;DHT22;41247;49.736;8.752;2023-12-04T10:51:12;1.00;99.90
55369;DHT22;41247;49.736;8.752;2023-12-04T10:54:53;1.00;99.90
55369;DHT22;41247;49.736;8.752;2023-12-04T10:58:34;0.90;99.90
55369;DHT22;41247;49.736;8.752;2023-12-04T11:02:20;0.70;99.90
55369;DHT22;41247;49.736;8.752;2023-12-04T11:06:02;0.40;99.90
55369;DHT22;41247;49.736;8.752;2023-12-04T11:09:43;0.10;99.90
55369;DHT22;41247;49.736;8.752;2023-12-04T11:13:27;0.00;99.90
55369;DHT22;41247;49.736;8.752;2023-12-04T11:17:10;0.10;99.90
55369;DHT22;41247;49.736;8.752;2023-12-04T11:20:58;0.20;99.90
55369;DHT22;41247;49.736;8.752;2023-12-04T11:24:39;0.20;99.90
55369;DHT22;41247;49.736;8.752;2023-12-04T11:28:21;0.20;99.90
55369;DHT22;41247;49.736;8.752;2023-12-04T11:32:05;0.20;99.90
55369;DHT22;41247;49.736;8.752;2023-12-04T11:35:46;0.30;99.90
55369;DHT22;41247;49.736;8.752;2023-12-04T11:39:27;0.30;99.90
55369;DHT22;41247;49.736;8.752;2023-12-04T11:43:25;0.20;99.90
55369;DHT22;41247;49.736;8.752;2023-12-04T11:47:06;0.20;99.90
55369;DHT22;41247;49.736;8.752;2023-12-04T11:50:47;0.20;99.90
55369;DHT22;41247;49.736;8.752;2023-12-04T11:54:28;0.20;99.90
55369;DHT22;41247;49.736;8.752;2023-12-04T11:58:12;0.20;99.90
55369;DHT22;41247;49.736;8.752;2023-12-04T12:01:56;0.40;99.90
55369;DHT22;41247;49.736;8.752;2023-12-04T12:05:38;0.40;99.90
55369;DHT22;41247;49.736;8.752;2023-12-04T12:09:19;0.50;99.90
55369;DHT22;41247;49.736;8.752;2023-12-04T12:13:00;0.50;99.90
55369;DHT22;41247;49.736;8.752;2023-12-04T12:16:41;0.50;99.90
55369;DHT22;41247;49.736;8.752;2023-12-04T12:20:21;0.40;99.90
55369;DHT22;41247;49.736;8.752;2023-12-04T12:24:02;0.30;99.90
55369;DHT22;41247;49.736;8.752;2023-12-04T12:27:45;0.30;99.90
55369;DHT22;41247;49.736;8.752;2023-12-04T12:31:25;0.30;99.90
55369;DHT22;41247;49.736;8.752;2023-12-04T12:35:06;0.40;99.90
55369;DHT22;41247;49.736;8.752;2023-12-04T12:38:47;0.50;99.90
55369;DHT22;41247;49.736;8.752;2023-12-04T12:42:29;0.60;99.90
55369;DHT22;41247;49.736;8.752;2023-12-04T12:46:10;0.80;99.90
55369;DHT22;41247;49.736;8.752;2023-12-04T12:49:52;1.00;99.90
55369;DHT22;41247;49.736;8.752;2023-12-04T12:53:33;1.10;99.90
55369;DHT22;41247;49.736;8.752;2023-12-04T12:57:14;1.20;99.90
55369;DHT22;41247;49.736;8.752;2023-12-04T13:00:55;1.30;99.90
55369;DHT22;41247;49.736;8.752;2023-12-04T13:04:41;1.30;99.90
55369;DHT22;41247;49.736;8.752;2023-12-04T13:08:23;1.30;99.90
55369;DHT22;41247;49.736;8.752;2023-12-04T13:12:04;1.30;99.90
55369;DHT22;41247;49.736;8.752;2023-12-04T13:15:46;1.40;99.90
55369;DHT22;41247;49.736;8.752;2023-12-04T13:19:26;1.30;99.90
55369;DHT22;41247;49.736;8.752;2023-12-04T13:23:07;1.40;99.90
55369;DHT22;41247;49.736;8.752;2023-12-04T13:26:48;1.40;99.90
55369;DHT22;41247;49.736;8.752;2023-12-04T13:30:28;1.40;99.90
55369;DHT22;41247;49.736;8.752;2023-12-04T13:34:09;1.40;99.90
55369;DHT22;41247;49.736;8.752;2023-12-04T13:37:49;1.30;99.90
55369;DHT22;41247;49.736;8.752;2023-12-04T13:41:33;1.40;99.90
55369;DHT22;41247;49.736;8.752;2023-12-04T13:45:14;1.40;99.90
55369;DHT22;41247;49.736;8.752;2023-12-04T13:48:54;1.40;99.90
55369;DHT22;41247;49.736;8.752;2023-12-04T13:52:36;1.40;99.90
55369;DHT22;41247;49.736;8.752;2023-12-04T13:56:16;1.40;99.90
55369;DHT22;41247;49.736;8.752;2023-12-04T13:59:57;1.40;99.90
55369;DHT22;41247;49.736;8.752;2023-12-04T14:03:38;1.50;99.90
55369;DHT22;41247;49.736;8.752;2023-12-04T14:07:18;1.60;99.90
55369;DHT22;41247;49.736;8.752;2023-12-04T14:10:59;1.50;99.90
55369;DHT22;41247;49.736;8.752;2023-12-04T14:14:39;1.50;99.90
55369;DHT22;41247;49.736;8.752;2023-12-04T14:18:20;1.50;99.90
55369;DHT22;41247;49.736;8.752;2023-12-04T14:22:01;1.50;99.90
55369;DHT22;41247;49.736;8.752;2023-12-04T14:25:41;1.50;99.90
55369;DHT22;41247;49.736;8.752;2023-12-04T14:29:22;1.40;99.90
55369;DHT22;41247;49.736;8.752;2023-12-04T14:33:02;1.40;99.90
55369;DHT22;41247;49.736;8.752;2023-12-04T14:36:43;1.40;99.90
55369;DHT22;41247;49.736;8.752;2023-12-04T14:40:24;1.40;99.90
55369;DHT22;41247;49.736;8.752;2023-12-04T14:44:04;1.50;99.90
55369;DHT22;41247;49.736;8.752;2023-12-04T14:47:46;1.50;99.90
55369;DHT22;41247;49.736;8.752;2023-12-04T14:51:26;1.40;99.90
55369;DHT22;41247;49.736;8.752;2023-12-04T14:55:07;1.40;99.90
55369;DHT22;41247;49.736;8.752;2023-12-04T14:58:49;1.30;99.90
55369;DHT22;41247;49.736;8.752;2023-12-04T15:02:30;1.30;99.90
55369;DHT22;41247;49.736;8.752;2023-12-04T15:06:10;1.30;99.90
55369;DHT22;41247;49.736;8.752;2023-12-04T15:09:51;1.30;99.90
55369;DHT22;41247;49.736;8.752;2023-12-04T15:13:31;1.20;99.90
55369;DHT22;41247;49.736;8.752;2023-12-04T15:17:12;1.20;99.90
55369;DHT22;41247;49.736;8.752;2023-12-04T15:20:53;1.20;99.90
55369;DHT22;41247;49.736;8.752;2023-12-04T15:24:34;1.20;99.90
55369;DHT22;41247;49.736;8.752;2023-12-04T15:28:15;1.20;99.90
55369;DHT22;41247;49.736;8.752;2023-12-04T15:31:56;1.20;99.90
55369;DHT22;41247;49.736;8.752;2023-12-04T15:35:36;1.20;99.90
55369;DHT22;41247;49.736;8.752;2023-12-04T15:39:17;1.20;99.90
55369;DHT22;41247;49.736;8.752;2023-12-04T15:42:57;1.30;99.90
55369;DHT22;41247;49.736;8.752;2023-12-04T15:46:38;1.30;99.90
55369;DHT22;41247;49.736;8.752;2023-12-04T15:50:18;1.40;99.90
55369;DHT22;41247;49.736;8.752;2023-12-04T15:53:59;1.30;99.90
55369;DHT22;41247;49.736;8.752;2023-12-04T15:57:40;1.30;99.90
55369;DHT22;41247;49.736;8.752;2023-12-04T16:01:20;1.30;99.90
55369;DHT22;41247;49.736;8.752;2023-12-04T16:05:01;1.30;99.90
55369;DHT22;41247;49.736;8.752;2023-12-04T16:08:42;1.40;99.90
55369;DHT22;41247;49.736;8.752;2023-12-04T16:12:22;1.30;99.90
55369;DHT22;41247;49.736;8.752;2023-12-04T16:16:05;1.30;99.90
55369;DHT22;41247;49.736;8.752;2023-12-04T16:19:46;1.20;99.90
55369;DHT22;41247;49.736;8.752;2023-12-04T16:23:27;1.20;99.90
55369;DHT22;41247;49.736;8.752;2023-12-04T16:27:07;1.10;99.90
55369;DHT22;41247;49.736;8.752;2023-12-04T16:30:48;1.20;99.90
55369;DHT22;41247;49.736;8.752;2023-12-04T16:34:29;1.20;99.90
55369;DHT22;41247;49.736;8.752;2023-12-04T16:38:10;1.20;99.90
55369;DHT22;41247;49.736;8.752;2023-12-04T16:41:51;1.10;99.90
55369;DHT22;41247;49.736;8.752;2023-12-04T16:45:32;1.10;99.90
55369;DHT22;41247;49.736;8.752;2023-12-04T16:49:13;1.20;99.90
55369;DHT22;41247;49.736;8.752;2023-12-04T16:52:53;1.20;99.90
55369;DHT22;41247;49.736;8.752;2023-12-04T16:56:34;1.30;99.90
55369;DHT22;41247;49.736;8.752;2023-12-04T17:00:15;1.30;99.90
55369;DHT22;41247;49.736;8.752;2023-12-04T17:03:56;1.40;99.90
55369;DHT22;41247;49.736;8.752;2023-12-04T17:07:36;1.40;99.90
55369;DHT22;41247;49.736;8.752;2023-12-04T17:11:17;1.50;99.90
55369;DHT22;41247;49.736;8.752;2023-12-04T17:14:57;1.50;99.90
55369;DHT22;41247;49.736;8.752;2023-12-04T17:18:38;1.50;99.90
55369;DHT22;41247;49.736;8.752;2023-12-04T17:22:19;1.50;99.90
55369;DHT22;41247;49.736;8.752;2023-12-04T17:25:59;1.50;99.90
55369;DHT22;41247;49.736;8.752;2023-12-04T17:29:40;1.60;99.90
55369;DHT22;41247;49.736;8.752;2023-12-04T17:33:21;1.60;99.90
55369;DHT22;41247;49.736;8.752;2023-12-04T17:37:01;1.60;99.90
55369;DHT22;41247;49.736;8.752;2023-12-04T17:40:42;1.60;99.90
55369;DHT22;41247;49.736;8.752;2023-12-04T17:44:24;1.60;99.90
55369;DHT22;41247;49.736;8.752;2023-12-04T17:48:04;1.70;99.90
55369;DHT22;41247;49.736;8.752;2023-12-04T17:51:45;1.70;99.90
55369;DHT22;41247;49.736;8.752;2023-12-04T17:55:26;1.60;99.90
55369;DHT22;41247;49.736;8.752;2023-12-04T17:59:06;1.60;99.90
55369;DHT22;41247;49.736;8.752;2023-12-04T18:02:47;1.60;99.90
55369;DHT22;41247;49.736;8.752;2023-12-04T18:06:31;1.60;99.90
55369;DHT22;41247;49.736;8.752;2023-12-04T18:10:11;1.60;99.90
55369;DHT22;41247;49.736;8.752;2023-12-04T18:13:53;1.60;99.90
55369;DHT22;41247;49.736;8.752;2023-12-04T18:17:33;1.70;99.90
55369;DHT22;41247;49.736;8.752;2023-12-04T18:21:14;1.70;99.90
55369;DHT22;41247;49.736;8.752;2023-12-04T18:24:55;1.70;99.90
55369;DHT22;41247;49.736;8.752;2023-12-04T18:28:36;1.70;99.90
55369;DHT22;41247;49.736;8.752;2023-12-04T18:32:17;1.70;99.90
55369;DHT22;41247;49.736;8.752;2023-12-04T18:35:58;1.80;99.90
55369;DHT22;41247;49.736;8.752;2023-12-04T18:39:41;1.90;99.90
55369;DHT22;41247;49.736;8.752;2023-12-04T18:43:22;2.00;99.90
55369;DHT22;41247;49.736;8.752;2023-12-04T18:47:07;1.90;99.90
55369;DHT22;41247;49.736;8.752;2023-12-04T18:50:48;1.90;99.90
55369;DHT22;41247;49.736;8.752;2023-12-04T18:54:31;1.90;99.90
55369;DHT22;41247;49.736;8.752;2023-12-04T18:58:12;2.00;99.90
55369;DHT22;41247;49.736;8.752;2023-12-04T19:01:52;2.00;99.90
55369;DHT22;41247;49.736;8.752;2023-12-04T19:05:33;2.00;99.90
55369;DHT22;41247;49.736;8.752;2023-12-04T19:09:14;2.00;99.90
55369;DHT22;41247;49.736;8.752;2023-12-04T19:12:54;2.00;99.90
55369;DHT22;41247;49.736;8.752;2023-12-04T19:16:36;2.00;99.90
55369;DHT22;41247;49.736;8.752;2023-12-04T19:20:16;2.00;99.90
55369;DHT22;41247;49.736;8.752;2023-12-04T19:23:57;2.00;99.90
55369;DHT22;41247;49.736;8.752;2023-12-04T19:27:38;2.10;99.90
55369;DHT22;41247;49.736;8.752;2023-12-04T19:31:18;2.10;99.90
55369;DHT22;41247;49.736;8.752;2023-12-04T19:34:59;2.00;99.90
55369;DHT22;41247;49.736;8.752;2023-12-04T19:38:40;2.10;99.90
55369;DHT22;41247;49.736;8.752;2023-12-04T19:42:20;2.10;99.90
55369;DHT22;41247;49.736;8.752;2023-12-04T19:46:04;2.10;99.90
55369;DHT22;41247;49.736;8.752;2023-12-04T19:49:45;2.10;99.90
55369;DHT22;41247;49.736;8.752;2023-12-04T19:53:25;2.10;99.90
55369;DHT22;41247;49.736;8.752;2023-12-04T19:57:06;2.10;99.90
55369;DHT22;41247;49.736;8.752;2023-12-04T20:00:47;2.20;99.90
55369;DHT22;41247;49.736;8.752;2023-12-04T20:04:27;2.20;99.90
55369;DHT22;41247;49.736;8.752;2023-12-04T20:08:08;2.20;99.90
55369;DHT22;41247;49.736;8.752;2023-12-04T20:11:48;2.20;99.90
55369;DHT22;41247;49.736;8.752;2023-12-04T20:15:29;2.20;99.90
55369;DHT22;41247;49.736;8.752;2023-12-04T20:19:09;2.10;99.90
55369;DHT22;41247;49.736;8.752;2023-12-04T20:22:50;2.10;99.90
55369;DHT22;41247;49.736;8.752;2023-12-04T20:26:32;2.10;99.90
55369;DHT22;41247;49.736;8.752;2023-12-04T20:30:12;2.20;99.90
55369;DHT22;41247;49.736;8.752;2023-12-04T20:33:53;2.20;99.90
55369;DHT22;41247;49.736;8.752;2023-12-04T20:37:33;2.20;99.90
55369;DHT22;41247;49.736;8.752;2023-12-04T20:41:14;2.20;99.90
55369;DHT22;41247;49.736;8.752;2023-12-04T20:44:55;2.10;99.90
55369;DHT22;41247;49.736;8.752;2023-12-04T20:48:35;2.10;99.90
55369;DHT22;41247;49.736;8.752;2023-12-04T20:52:16;2.20;99.90
55369;DHT22;41247;49.736;8.752;2023-12-04T20:55:56;2.20;99.90
55369;DHT22;41247;49.736;8.752;2023-12-04T20:59:37;2.20;99.90
55369;DHT22;41247;49.736;8.752;2023-12-04T21:03:18;2.20;99.90
55369;DHT22;41247;49.736;8.752;2023-12-04T21:06:58;2.20;99.90
55369;DHT22;41247;49.736;8.752;2023-12-04T21:10:39;2.10;99.90
55369;DHT22;41247;49.736;8.752;2023-12-04T21:14:19;2.10;99.90
55369;DHT22;41247;49.736;8.752;2023-12-04T21:18:00;2.10;99.90
55369;DHT22;41247;49.736;8.752;2023-12-04T21:21:41;2.10;99.90
55369;DHT22;41247;49.736;8.752;2023-12-04T21:25:21;2.20;99.90
55369;DHT22;41247;49.736;8.752;2023-12-04T21:29:02;2.20;99.90
55369;DHT22;41247;49.736;8.752;2023-12-04T21:32:43;2.20;99.90
55369;DHT22;41247;49.736;8.752;2023-12-04T21:36:23;2.20;99.90
55369;DHT22;41247;49.736;8.752;2023-12-04T21:40:04;2.20;99.90
55369;DHT22;41247;49.736;8.752;2023-12-04T21:43:45;2.20;99.90
55369;DHT22;41247;49.736;8.752;2023-12-04T21:47:26;2.20;99.90
55369;DHT22;41247;49.736;8.752;2023-12-04T21:51:07;2.20;99.90
55369;DHT22;41247;49.736;8.752;2023-12-04T21:54:47;2.30;99.90
55369;DHT22;41247;49.736;8.752;2023-12-04T21:58:28;2.40;99.90
55369;DHT22;41247;49.736;8.752;2023-12-04T22:02:08;2.40;99.90
55369;DHT22;41247;49.736;8.752;2023-12-04T22:05:49;2.40;99.90
55369;DHT22;41247;49.736;8.752;2023-12-04T22:09:30;2.40;99.90
55369;DHT22;41247;49.736;8.752;2023-12-04T22:13:10;2.50;99.90
55369;DHT22;41247;49.736;8.752;2023-12-04T22:16:51;2.50;99.90
55369;DHT22;41247;49.736;8.752;2023-12-04T22:20:40;2.50;99.90
55369;DHT22;41247;49.736;8.752;2023-12-04T22:24:21;2.50;99.90
55369;DHT22;41247;49.736;8.752;2023-12-04T22:28:02;2.50;99.90
55369;DHT22;41247;49.736;8.752;2023-12-04T22:31:42;2.50;99.90
55369;DHT22;41247;49.736;8.752;2023-12-04T22:35:23;2.50;99.90
55369;DHT22;41247;49.736;8.752;2023-12-04T22:39:04;2.50;99.90
55369;DHT22;41247;49.736;8.752;2023-12-04T22:42:44;2.60;99.90
55369;DHT22;41247;49.736;8.752;2023-12-04T22:46:25;2.50;99.90
55369;DHT22;41247;49.736;8.752;2023-12-04T22:50:06;2.60;99.90
55369;DHT22;41247;49.736;8.752;2023-12-04T22:53:47;2.60;99.90
55369;DHT22;41247;49.736;8.752;2023-12-04T22:57:27;2.60;99.90
55369;DHT22;41247;49.736;8.752;2023-12-04T23:01:08;2.60;99.90
55369;DHT22;41247;49.736;8.752;2023-12-04T23:04:49;2.60;99.90
55369;DHT22;41247;49.736;8.752;2023-12-04T23:08:29;2.60;99.90
55369;DHT22;41247;49.736;8.752;2023-12-04T23:12:10;2.70;99.90
55369;DHT22;41247;49.736;8.752;2023-12-04T23:15:50;2.70;99.90
55369;DHT22;41247;49.736;8.752;2023-12-04T23:19:31;2.70;99.90
55369;DHT22;41247;49.736;8.752;2023-12-04T23:23:11;2.70;99.90
55369;DHT22;41247;49.736;8.752;2023-12-04T23:26:54;2.70;99.90
55369;DHT22;41247;49.736;8.752;2023-12-04T23:30:35;2.70;99.90
55369;DHT22;41247;49.736;8.752;2023-12-04T23:34:15;2.70;99.90
55369;DHT22;41247;49.736;8.752;2023-12-04T23:37:56;2.70;99.90